Terminal Aerodrome Forecast
Issued by NWS Mt. Holly, NJ

Home | Current Version | Previous Version | Text Only | Print | Product List | Glossary On
Versions: 1 2 3 4 5 6 7 8 9 10 11 12 13 14 15 16 17 18 19 20 21
000
FTUS41 KPHI 201900 AAB
TAFACY
TAF AMD
KACY 201929Z 2019/2118 14010KT P6SM BKN035 BKN080
     FM210200 13005KT 4SM BR BKN020
     FM210600 VRB02KT 3SM BR BKN008
      TEMPO 2108/2112 2SM -DZ BR OVC004
     FM211600 20005KT P6SM SCT020 BKN200=

USA.gov is the U.S. government's official web portal to all federal, state and local government web resources and services.